createdAt,value
2022-09-12T00:00:11.849Z,0.00
2022-09-12T00:01:12.157Z,0.00
2022-09-12T00:02:12.476Z,0.00
2022-09-12T00:03:12.792Z,0.00
2022-09-12T00:04:13.125Z,0.00
2022-09-12T00:05:13.432Z,0.00
2022-09-12T00:06:13.739Z,0.00
2022-09-12T00:07:14.054Z,0.00
2022-09-12T00:08:14.349Z,0.00
2022-09-12T00:09:14.703Z,0.00
2022-09-12T00:10:14.997Z,0.00
2022-09-12T00:11:15.323Z,0.00
2022-09-12T00:12:15.630Z,0.00
2022-09-12T00:13:16.327Z,0.00
2022-09-12T00:14:16.181Z,0.00
2022-09-12T00:15:16.587Z,0.00
2022-09-12T00:16:16.850Z,0.00
2022-09-12T00:17:17.011Z,0.00
2022-09-12T00:18:17.532Z,0.00
2022-09-12T00:19:17.647Z,0.00
2022-09-12T00:20:17.978Z,0.00
2022-09-12T00:21:18.370Z,0.00
2022-09-12T00:22:18.561Z,0.00
2022-09-12T00:23:18.888Z,0.00
2022-09-12T00:24:19.215Z,0.00
2022-09-12T00:25:19.526Z,0.00
2022-09-12T00:26:19.841Z,0.00
2022-09-12T00:27:20.142Z,0.00
2022-09-12T00:28:20.468Z,0.00
2022-09-12T00:29:20.782Z,0.00
2022-09-12T00:30:21.074Z,0.00
2022-09-12T00:31:21.427Z,0.00
2022-09-12T00:32:21.735Z,0.00
2022-09-12T00:33:22.017Z,0.00
2022-09-12T00:34:22.372Z,0.00
2022-09-12T00:35:22.646Z,0.00
2022-09-12T00:36:22.957Z,0.00
2022-09-12T00:37:23.281Z,0.00
2022-09-12T00:38:23.621Z,0.00
2022-09-12T00:39:23.958Z,0.00
2022-09-12T00:40:24.269Z,0.00
2022-09-12T00:41:24.591Z,0.00
2022-09-12T00:42:24.859Z,0.00
2022-09-12T00:43:25.188Z,0.00
2022-09-12T00:44:25.541Z,0.00
2022-09-12T00:45:25.844Z,0.00
2022-09-12T00:46:26.155Z,0.00
2022-09-12T00:47:26.475Z,0.00
2022-09-12T00:48:26.757Z,0.00
2022-09-12T00:49:27.131Z,0.00
2022-09-12T00:50:27.390Z,0.00
2022-09-12T00:51:27.754Z,0.00
2022-09-12T00:52:28.083Z,0.00
2022-09-12T00:53:28.381Z,0.00
2022-09-12T00:54:28.833Z,0.00
2022-09-12T00:55:29.066Z,0.00
2022-09-12T00:56:29.262Z,0.00
2022-09-12T00:57:29.585Z,0.00
2022-09-12T00:58:30.289Z,0.00
2022-09-12T00:59:30.189Z,0.00
2022-09-12T01:00:30.537Z,0.00
2022-09-12T01:01:32.745Z,0.00
2022-09-12T01:02:30.993Z,0.00
2022-09-12T01:03:31.310Z,0.00
2022-09-12T01:04:31.656Z,0.00
2022-09-12T01:05:31.944Z,0.00
2022-09-12T01:06:32.257Z,0.00
2022-09-12T01:07:35.789Z,0.00
2022-09-12T01:08:33.918Z,0.00
2022-09-12T01:09:33.120Z,0.00
2022-09-12T01:10:33.400Z,0.00
2022-09-12T01:11:33.735Z,0.00
2022-09-12T01:12:34.069Z,0.00
2022-09-12T01:13:34.422Z,0.00
2022-09-12T01:14:34.612Z,0.00
2022-09-12T01:15:34.904Z,0.00
2022-09-12T01:16:36.073Z,0.00
2022-09-12T01:17:35.585Z,0.00
2022-09-12T01:18:35.864Z,0.00
2022-09-12T01:19:36.209Z,0.00
2022-09-12T01:20:36.547Z,0.00
2022-09-12T01:21:36.861Z,0.00
2022-09-12T01:22:37.219Z,0.00
2022-09-12T01:23:37.461Z,0.00
2022-09-12T01:24:37.899Z,0.00
2022-09-12T01:25:38.031Z,0.00
2022-09-12T01:26:38.397Z,0.00
2022-09-12T01:27:38.701Z,0.00
2022-09-12T01:28:39.088Z,0.00
2022-09-12T01:29:39.329Z,0.00
2022-09-12T01:30:39.639Z,0.00
2022-09-12T01:31:39.970Z,0.00
2022-09-12T01:32:40.282Z,0.00
2022-09-12T01:33:40.592Z,0.00
2022-09-12T01:34:40.930Z,0.00
2022-09-12T01:35:41.248Z,0.00
2022-09-12T01:36:41.608Z,0.00
2022-09-12T01:37:41.821Z,0.00
2022-09-12T01:38:42.498Z,0.00
2022-09-12T01:39:42.389Z,0.00
2022-09-12T01:40:42.668Z,0.00
2022-09-12T01:41:43.030Z,0.00
2022-09-12T01:42:43.322Z,0.00
2022-09-12T01:43:43.681Z,0.00
2022-09-12T01:44:43.828Z,0.00
2022-09-12T01:45:44.187Z,0.00
2022-09-12T01:46:44.494Z,0.00
2022-09-12T01:47:44.801Z,0.00
2022-09-12T01:48:45.309Z,0.00
2022-09-12T01:49:45.470Z,0.00
2022-09-12T01:50:45.770Z,0.00
2022-09-12T01:51:46.172Z,0.00
2022-09-12T01:52:46.358Z,0.00
2022-09-12T01:53:46.670Z,0.00
2022-09-12T01:54:46.998Z,0.00
2022-09-12T01:55:47.271Z,0.00
2022-09-12T01:56:47.615Z,0.00
2022-09-12T01:57:47.918Z,0.00
2022-09-12T01:58:48.274Z,0.00
2022-09-12T01:59:48.467Z,0.00
2022-09-12T02:00:48.883Z,0.00
2022-09-12T02:01:49.144Z,0.00
2022-09-12T02:02:49.317Z,0.00
2022-09-12T02:03:49.616Z,0.00
2022-09-12T02:04:49.895Z,0.00
2022-09-12T02:05:50.246Z,0.00
2022-09-12T02:06:50.548Z,0.00
2022-09-12T02:07:50.981Z,0.00
2022-09-12T02:08:51.146Z,0.00
2022-09-12T02:09:51.467Z,0.00
2022-09-12T02:10:51.788Z,0.00
2022-09-12T02:11:52.181Z,0.00
2022-09-12T02:12:52.342Z,1.00
2022-09-12T02:13:52.661Z,0.00
2022-09-12T02:14:52.880Z,1.00
2022-09-12T02:15:53.293Z,0.00
2022-09-12T02:16:53.550Z,0.00
2022-09-12T02:17:53.851Z,0.00
2022-09-12T02:18:54.210Z,0.00
2022-09-12T02:19:54.552Z,0.00
2022-09-12T02:20:54.856Z,0.00
2022-09-12T02:21:55.157Z,0.00
2022-09-12T02:22:55.380Z,0.00
2022-09-12T02:23:55.690Z,0.00
2022-09-12T02:24:56.008Z,0.00
2022-09-12T02:25:56.321Z,0.00
2022-09-12T02:26:56.553Z,0.00
2022-09-12T02:27:56.827Z,1.00
2022-09-12T02:28:57.146Z,0.00
2022-09-12T02:29:57.450Z,0.00
2022-09-12T02:30:57.841Z,0.00
2022-09-12T02:31:58.011Z,0.00
2022-09-12T02:32:58.359Z,0.00
2022-09-12T02:33:58.703Z,0.00
2022-09-12T02:34:58.974Z,0.00
2022-09-12T02:35:59.331Z,0.00
2022-09-12T02:36:59.666Z,0.00
2022-09-12T02:37:59.879Z,0.00
2022-09-12T02:39:00.188Z,0.00
2022-09-12T02:40:00.534Z,0.00
2022-09-12T02:41:00.751Z,0.00
2022-09-12T02:42:01.053Z,0.00
2022-09-12T02:43:01.429Z,0.00
2022-09-12T02:44:01.608Z,0.00
2022-09-12T02:45:01.868Z,0.00
2022-09-12T02:46:02.241Z,0.00
2022-09-12T02:47:02.536Z,0.00
2022-09-12T02:48:02.892Z,0.00
2022-09-12T02:49:03.209Z,0.00
2022-09-12T02:50:04.352Z,0.00
2022-09-12T02:51:03.753Z,0.00
2022-09-12T02:52:04.940Z,0.00
2022-09-12T02:53:04.476Z,0.00
2022-09-12T02:54:04.814Z,0.00
2022-09-12T02:55:05.037Z,0.00
2022-09-12T02:56:05.302Z,0.00
2022-09-12T02:57:05.515Z,0.00
2022-09-12T02:58:05.784Z,0.00
2022-09-12T02:59:06.978Z,0.00
2022-09-12T03:00:06.457Z,0.00
2022-09-12T03:01:06.842Z,0.00
2022-09-12T03:02:07.066Z,0.00
2022-09-12T03:03:07.311Z,0.00
2022-09-12T03:04:07.719Z,0.00
2022-09-12T03:05:07.958Z,0.00
2022-09-12T03:06:08.357Z,0.00
2022-09-12T03:07:08.548Z,0.00
2022-09-12T03:08:08.864Z,0.00
2022-09-12T03:09:09.202Z,0.00
2022-09-12T03:10:09.387Z,0.00
2022-09-12T03:11:09.681Z,0.00
2022-09-12T03:12:10.837Z,0.00
2022-09-12T03:13:10.265Z,0.00
2022-09-12T03:14:10.580Z,0.00
2022-09-12T03:15:10.834Z,1.00
2022-09-12T03:16:11.271Z,0.00
2022-09-12T03:17:11.519Z,0.00
2022-09-12T03:18:11.807Z,0.00
2022-09-12T03:19:12.163Z,0.00
2022-09-12T03:20:12.487Z,0.00
2022-09-12T03:21:12.819Z,0.00
2022-09-12T03:22:13.135Z,0.00
2022-09-12T03:23:13.421Z,1.00
2022-09-12T03:24:13.794Z,0.00
2022-09-12T03:25:14.092Z,0.00
2022-09-12T03:26:14.386Z,0.00
2022-09-12T03:27:14.673Z,0.00
2022-09-12T03:28:14.984Z,0.00
2022-09-12T03:29:15.219Z,0.00
2022-09-12T03:30:15.551Z,0.00
2022-09-12T03:31:15.877Z,0.00
2022-09-12T03:32:16.140Z,0.00
2022-09-12T03:33:16.460Z,0.00
2022-09-12T03:34:16.788Z,0.00
2022-09-12T03:35:20.888Z,0.00
2022-09-12T03:36:18.340Z,0.00
2022-09-12T03:37:17.677Z,0.00
2022-09-12T03:38:17.988Z,0.00
2022-09-12T03:39:18.262Z,1.00
2022-09-12T03:40:18.664Z,0.00
2022-09-12T03:41:18.854Z,0.00
2022-09-12T03:42:19.122Z,0.00
2022-09-12T03:43:19.383Z,0.00
2022-09-12T03:44:19.752Z,0.00
2022-09-12T03:45:20.032Z,0.00
2022-09-12T03:46:20.329Z,0.00
2022-09-12T03:47:20.578Z,0.00
2022-09-12T03:48:20.820Z,0.00
2022-09-12T03:49:21.149Z,0.00
2022-09-12T03:50:21.402Z,0.00
2022-09-12T03:51:21.731Z,0.00
2022-09-12T03:52:22.046Z,0.00
2022-09-12T03:53:22.373Z,0.00
2022-09-12T03:54:22.684Z,0.00
2022-09-12T03:55:22.952Z,0.00
2022-09-12T03:56:23.259Z,0.00
2022-09-12T03:57:23.540Z,1.00
2022-09-12T03:58:23.835Z,0.00
2022-09-12T03:59:24.315Z,0.00
2022-09-12T04:00:24.447Z,1.00
2022-09-12T04:01:24.714Z,1.00
2022-09-12T04:02:25.039Z,0.00
2022-09-12T04:03:25.325Z,0.00
2022-09-12T04:04:25.738Z,0.00
2022-09-12T04:05:25.969Z,0.00
2022-09-12T04:06:26.307Z,0.00
2022-09-12T04:07:26.584Z,0.00
2022-09-12T04:08:26.877Z,0.00
2022-09-12T04:09:27.160Z,0.00
2022-09-12T04:10:27.408Z,1.00
2022-09-12T04:11:27.768Z,0.00
2022-09-12T04:12:28.047Z,0.00
2022-09-12T04:13:28.332Z,0.00
2022-09-12T04:14:28.634Z,0.00
2022-09-12T04:15:28.952Z,0.00
2022-09-12T04:16:29.283Z,0.00
2022-09-12T04:17:29.581Z,0.00
2022-09-12T04:18:29.887Z,0.00
2022-09-12T04:19:30.299Z,0.00
2022-09-12T04:20:30.600Z,0.00
2022-09-12T04:21:30.914Z,0.00
2022-09-12T04:22:31.174Z,0.00
2022-09-12T04:23:31.505Z,0.00
2022-09-12T04:24:31.782Z,0.00
2022-09-12T04:25:32.099Z,0.00
2022-09-12T04:26:32.409Z,1.00
2022-09-12T04:27:32.635Z,1.00
2022-09-12T04:28:32.939Z,1.00
2022-09-12T04:29:33.170Z,1.00
2022-09-12T04:30:33.565Z,0.00
2022-09-12T04:31:33.948Z,0.00
2022-09-12T04:32:34.088Z,2.00
2022-09-12T04:33:34.366Z,0.00
2022-09-12T04:34:34.642Z,1.00
2022-09-12T04:35:34.977Z,0.00
2022-09-12T04:36:35.362Z,0.00
2022-09-12T04:37:35.569Z,1.00
2022-09-12T04:38:35.784Z,2.00
2022-09-12T04:39:36.158Z,3.00
2022-09-12T04:40:36.403Z,2.00
2022-09-12T04:41:36.627Z,2.00
2022-09-12T04:42:36.853Z,1.00
2022-09-12T04:43:37.265Z,3.00
2022-09-12T04:44:37.525Z,5.00
2022-09-12T04:45:37.853Z,4.00
2022-09-12T04:46:38.119Z,9.00
2022-09-12T04:47:38.308Z,9.00
2022-09-12T04:48:38.593Z,6.00
2022-09-12T04:49:38.837Z,16.00
2022-09-12T04:50:39.989Z,12.00
2022-09-12T04:51:39.396Z,23.00
2022-09-12T04:52:39.679Z,16.00
2022-09-12T04:53:39.926Z,28.00
2022-09-12T04:54:40.153Z,30.00
2022-09-12T04:55:40.432Z,31.00
2022-09-12T04:56:40.736Z,33.00
2022-09-12T04:57:40.956Z,39.00
2022-09-12T04:58:41.192Z,45.00
2022-09-12T04:59:41.436Z,29.00
2022-09-12T05:00:41.686Z,54.00
2022-09-12T05:01:42.015Z,57.00
2022-09-12T05:02:42.263Z,69.00
2022-09-12T05:03:42.568Z,74.00
2022-09-12T05:04:42.779Z,82.00
2022-09-12T05:05:43.014Z,85.00
2022-09-12T05:06:43.355Z,93.00
2022-09-12T05:07:43.588Z,99.00
2022-09-12T05:08:43.913Z,108.00
2022-09-12T05:09:44.241Z,113.00
2022-09-12T05:10:44.434Z,122.00
2022-09-12T05:12:46.031Z,138.00
2022-09-12T05:13:45.297Z,148.00
2022-09-12T05:14:45.658Z,154.00
2022-09-12T05:15:45.857Z,161.00
2022-09-12T05:16:49.443Z,174.00
2022-09-12T05:17:46.438Z,179.00
2022-09-12T05:18:46.803Z,191.00
2022-09-12T05:19:46.928Z,203.00
2022-09-12T05:20:47.191Z,209.00
2022-09-12T05:21:47.481Z,221.00
2022-09-12T05:22:47.737Z,227.00
2022-09-12T05:23:48.040Z,239.00
2022-09-12T05:24:50.561Z,247.00
2022-09-12T05:25:48.542Z,257.00
2022-09-12T05:26:48.812Z,271.00
2022-09-12T05:27:50.623Z,273.00
2022-09-12T05:28:49.383Z,276.00
2022-09-12T05:29:49.705Z,289.00
2022-09-12T05:30:49.971Z,297.00
2022-09-12T05:31:50.247Z,306.00
2022-09-12T05:32:50.534Z,310.00
2022-09-12T05:33:50.772Z,328.00
2022-09-12T05:34:51.070Z,332.00
2022-09-12T05:35:51.340Z,339.00
2022-09-12T05:36:51.613Z,348.00
2022-09-12T05:37:51.885Z,352.00
2022-09-12T05:38:52.282Z,365.00
2022-09-12T05:39:52.509Z,375.00
2022-09-12T05:40:52.632Z,380.00
2022-09-12T05:41:52.942Z,387.00
2022-09-12T05:42:53.185Z,391.00
2022-09-12T05:43:53.457Z,403.00
2022-09-12T05:44:53.738Z,411.00
2022-09-12T05:45:54.058Z,417.00
2022-09-12T05:46:54.347Z,426.00
2022-09-12T05:47:54.586Z,434.00
2022-09-12T05:48:56.302Z,437.00
2022-09-12T05:49:55.131Z,447.00
2022-09-12T05:50:55.445Z,452.00
2022-09-12T05:51:55.725Z,463.00
2022-09-12T05:52:56.026Z,466.00
2022-09-12T05:53:56.295Z,485.00
2022-09-12T05:54:56.570Z,482.00
2022-09-12T05:55:56.913Z,496.00
2022-09-12T05:56:57.152Z,491.00
2022-09-12T05:57:57.430Z,504.00
2022-09-12T05:58:57.700Z,508.00
2022-09-12T05:59:58.043Z,514.00
2022-09-12T06:00:58.289Z,527.00
2022-09-12T06:01:58.576Z,532.00
2022-09-12T06:02:58.855Z,543.00
2022-09-12T06:03:59.073Z,546.00
2022-09-12T06:04:59.386Z,558.00
2022-09-12T06:05:59.649Z,563.00
2022-09-12T06:06:59.905Z,565.00
2022-09-12T06:08:00.170Z,567.00
2022-09-12T06:09:00.806Z,581.00
2022-09-12T06:10:00.794Z,577.00
2022-09-12T06:11:02.334Z,590.00
2022-09-12T06:12:01.372Z,595.00
2022-09-12T06:13:01.639Z,600.00
2022-09-12T06:14:01.875Z,610.00
2022-09-12T06:15:02.136Z,623.00
2022-09-12T06:16:02.403Z,625.00
2022-09-12T06:17:02.716Z,641.00
2022-09-12T06:18:03.200Z,646.00
2022-09-12T06:19:03.346Z,652.00
2022-09-12T06:20:03.593Z,659.00
2022-09-12T06:21:03.823Z,658.00
2022-09-12T06:22:04.089Z,683.00
2022-09-12T06:23:04.316Z,670.00
2022-09-12T06:24:04.615Z,674.00
2022-09-12T06:25:04.938Z,684.00
2022-09-12T06:26:05.120Z,697.00
2022-09-12T06:27:05.401Z,715.00
2022-09-12T06:28:05.673Z,708.00
2022-09-12T06:29:05.959Z,713.00
2022-09-12T06:30:06.221Z,729.00
2022-09-12T06:31:06.533Z,728.00
2022-09-12T06:32:06.803Z,769.00
2022-09-12T06:33:07.081Z,705.00
2022-09-12T06:34:07.310Z,792.00
2022-09-12T06:35:07.650Z,713.00
2022-09-12T06:36:12.033Z,747.00
2022-09-12T06:37:08.668Z,751.00
2022-09-12T06:38:08.769Z,756.00
2022-09-12T06:39:08.733Z,767.00
2022-09-12T06:40:09.099Z,769.00
2022-09-12T06:41:09.305Z,752.00
2022-09-12T06:42:09.542Z,775.00
2022-09-12T06:43:09.849Z,779.00
2022-09-12T06:44:10.151Z,777.00
2022-09-12T06:45:10.414Z,801.00
2022-09-12T06:46:10.806Z,762.00
2022-09-12T06:47:11.423Z,795.00
2022-09-12T06:48:11.301Z,811.00
2022-09-12T06:49:11.538Z,817.00
2022-09-12T06:50:11.793Z,775.00
2022-09-12T06:51:12.057Z,805.00
2022-09-12T06:52:12.375Z,811.00
2022-09-12T06:53:12.627Z,838.00
2022-09-12T06:54:12.925Z,840.00
2022-09-12T06:55:16.249Z,872.00
2022-09-12T06:56:14.460Z,827.00
2022-09-12T06:57:13.903Z,731.00
2022-09-12T06:58:14.045Z,849.00
2022-09-12T06:59:14.315Z,887.00
2022-09-12T07:00:14.591Z,897.00
2022-09-12T07:01:14.995Z,912.00
2022-09-12T07:02:15.308Z,927.00
2022-09-12T07:03:15.524Z,938.00
2022-09-12T07:04:15.798Z,958.00
2022-09-12T07:05:16.125Z,956.00
2022-09-12T07:06:16.423Z,966.00
2022-09-12T07:07:16.675Z,979.00
2022-09-12T07:08:16.958Z,982.00
2022-09-12T07:09:17.280Z,1056.00
2022-09-12T07:10:22.083Z,1018.00
2022-09-12T07:11:17.839Z,1045.00
2022-09-12T07:12:18.181Z,1026.00
2022-09-12T07:13:18.454Z,1057.00
2022-09-12T07:14:18.733Z,1061.00
2022-09-12T07:15:18.996Z,1100.00
2022-09-12T07:16:20.111Z,1115.00
2022-09-12T07:17:19.572Z,1134.00
2022-09-12T07:18:19.858Z,1159.00
2022-09-12T07:19:20.125Z,1154.00
2022-09-12T07:20:20.423Z,1188.00
2022-09-12T07:21:20.721Z,1205.00
2022-09-12T07:22:21.007Z,1184.00
2022-09-12T07:23:21.272Z,1283.00
2022-09-12T07:24:21.547Z,1279.00
2022-09-12T07:25:21.858Z,1291.00
2022-09-12T07:26:22.122Z,1307.00
2022-09-12T07:27:22.451Z,1360.00
2022-09-12T07:28:22.803Z,1294.00
2022-09-12T07:29:36.446Z,1202.00
2022-09-12T07:30:24.355Z,1273.00
2022-09-12T07:31:23.656Z,1264.00
2022-09-12T07:32:23.872Z,1268.00
2022-09-12T07:33:24.155Z,1272.00
2022-09-12T07:34:24.431Z,1298.00
2022-09-12T07:35:24.703Z,1228.00
2022-09-12T07:36:25.021Z,1478.00
2022-09-12T07:37:25.280Z,1251.00
2022-09-12T07:38:25.556Z,1409.00
2022-09-12T07:39:25.856Z,1268.00
2022-09-12T07:40:26.243Z,1432.00
2022-09-12T07:41:26.484Z,1387.00
2022-09-12T07:42:26.786Z,1549.00
2022-09-12T07:43:27.130Z,1379.00
2022-09-12T07:44:27.413Z,1552.00
2022-09-12T07:45:27.682Z,1092.00
2022-09-12T07:46:27.943Z,1529.00
2022-09-12T07:47:28.221Z,1603.00
2022-09-12T07:48:28.626Z,1796.00
2022-09-12T07:49:28.878Z,1670.00
2022-09-12T07:50:29.139Z,1716.00
2022-09-12T07:51:29.379Z,1837.00
2022-09-12T07:52:29.627Z,1848.00
2022-09-12T07:53:29.953Z,1780.00
2022-09-12T07:54:30.227Z,1863.00
2022-09-12T07:55:30.493Z,1850.00
2022-09-12T07:56:34.617Z,1953.00
2022-09-12T07:57:32.098Z,1904.00
2022-09-12T07:58:31.267Z,1889.00
2022-09-12T07:59:51.425Z,1937.00
2022-09-12T08:00:32.858Z,1976.00
2022-09-12T08:01:32.169Z,1956.00
2022-09-12T08:02:32.456Z,2044.00
2022-09-12T08:03:32.693Z,2061.00
2022-09-12T08:04:33.063Z,2139.00
2022-09-12T08:05:33.281Z,2113.00
2022-09-12T08:06:33.542Z,2111.00
2022-09-12T08:07:33.912Z,1909.00
2022-09-12T08:08:34.154Z,2126.00
2022-09-12T08:09:34.425Z,1957.00
2022-09-12T08:10:34.730Z,2372.00
2022-09-12T08:11:35.301Z,1500.00
2022-09-12T08:12:35.318Z,1960.00
2022-09-12T08:13:35.529Z,2220.00
2022-09-12T08:14:35.739Z,2122.00
2022-09-12T08:15:36.080Z,2199.00
2022-09-12T08:16:36.392Z,2255.00
2022-09-12T08:17:36.569Z,2232.00
2022-09-12T08:18:36.883Z,2268.00
2022-09-12T08:19:37.151Z,2338.00
2022-09-12T08:20:37.435Z,2307.00
2022-09-12T08:21:37.759Z,2449.00
2022-09-12T08:22:37.997Z,2421.00
2022-09-12T08:23:38.238Z,1951.00
2022-09-12T08:24:38.540Z,2463.00
2022-09-12T08:25:38.837Z,2515.00
2022-09-12T08:26:39.121Z,2863.00
2022-09-12T08:27:39.393Z,3140.00
2022-09-12T08:28:40.017Z,2631.00
2022-09-12T08:29:39.952Z,2620.00
2022-09-12T08:30:40.309Z,2316.00
2022-09-12T08:31:40.939Z,3021.00
2022-09-12T08:32:40.814Z,2922.00
2022-09-12T08:33:41.078Z,2637.00
2022-09-12T08:34:41.487Z,2765.00
2022-09-12T08:35:41.688Z,2773.00
2022-09-12T08:36:41.979Z,2476.00
2022-09-12T08:37:42.242Z,2968.00
2022-09-12T08:38:42.639Z,3184.00
2022-09-12T08:39:42.928Z,3004.00
2022-09-12T08:40:43.135Z,2990.00
2022-09-12T08:41:43.435Z,3558.00
2022-09-12T08:42:43.744Z,2996.00
2022-09-12T08:43:44.067Z,2613.00
2022-09-12T08:44:44.301Z,3510.00
2022-09-12T08:45:44.921Z,2579.00
2022-09-12T08:46:44.837Z,3818.00
2022-09-12T08:47:45.108Z,3814.00
2022-09-12T08:48:45.375Z,5975.00
2022-09-12T08:49:45.631Z,10135.00
2022-09-12T08:50:49.865Z,14770.00
2022-09-12T08:51:46.216Z,14169.00
2022-09-12T08:52:46.591Z,10338.00
2022-09-12T08:53:46.902Z,5250.00
2022-09-12T08:54:47.025Z,5269.00
2022-09-12T08:55:47.300Z,4248.00
2022-09-12T08:56:47.657Z,4635.00
2022-09-12T08:57:47.930Z,5173.00
2022-09-12T08:58:48.167Z,5451.00
2022-09-12T08:59:48.452Z,5885.00
2022-09-12T09:00:48.704Z,8294.00
2022-09-12T09:01:48.989Z,6596.00
2022-09-12T09:02:49.459Z,5661.00
2022-09-12T09:03:49.574Z,5001.00
2022-09-12T09:04:49.897Z,4966.00
2022-09-12T09:05:50.292Z,4835.00
2022-09-12T09:06:50.502Z,4404.00
2022-09-12T09:07:50.747Z,4422.00
2022-09-12T09:08:51.066Z,3410.00
2022-09-12T09:09:51.361Z,4490.00
2022-09-12T09:10:51.604Z,4817.00
2022-09-12T09:11:51.873Z,4082.00
2022-09-12T09:12:52.135Z,4143.00
2022-09-12T09:13:52.423Z,3439.00
2022-09-12T09:14:52.766Z,4204.00
2022-09-12T09:15:53.003Z,4000.00
2022-09-12T09:16:53.244Z,4035.00
2022-09-12T09:17:53.538Z,4861.00
2022-09-12T09:18:53.806Z,5962.00
2022-09-12T09:19:54.122Z,3295.00
2022-09-12T09:20:54.508Z,4335.00
2022-09-12T09:21:54.663Z,6332.00
2022-09-12T09:22:54.963Z,6007.00
2022-09-12T09:23:55.218Z,5656.00
2022-09-12T09:24:55.657Z,5601.00
2022-09-12T09:25:55.841Z,5998.00
2022-09-12T09:26:56.085Z,7087.00
2022-09-12T09:27:56.364Z,6025.00
2022-09-12T09:28:56.655Z,7426.00
2022-09-12T09:29:56.931Z,11644.00
2022-09-12T09:30:57.578Z,14878.00
2022-09-12T09:31:57.543Z,16719.00
2022-09-12T09:32:57.966Z,14123.00
2022-09-12T09:33:58.127Z,11055.00
2022-09-12T09:34:58.404Z,10646.00
2022-09-12T09:35:58.684Z,8853.00
2022-09-12T09:36:58.977Z,5624.00
2022-09-12T09:37:59.210Z,8520.00
2022-09-12T09:38:59.528Z,4889.00
2022-09-12T09:40:00.010Z,8069.00
2022-09-12T09:41:00.045Z,9762.00
2022-09-12T09:42:00.349Z,4643.00
2022-09-12T09:43:00.590Z,15974.00
2022-09-12T09:44:00.911Z,3643.00
2022-09-12T09:45:01.181Z,10400.00
2022-09-12T09:46:01.462Z,14423.00
2022-09-12T09:47:01.758Z,14215.00
2022-09-12T09:48:01.982Z,12885.00
2022-09-12T09:49:02.276Z,13080.00
2022-09-12T09:50:02.567Z,12905.00
2022-09-12T09:51:02.846Z,16490.00
2022-09-12T09:52:03.084Z,9293.00
2022-09-12T09:53:03.398Z,12086.00
2022-09-12T09:54:03.695Z,9413.00
2022-09-12T09:55:03.952Z,12789.00
2022-09-12T09:56:04.273Z,11126.00
2022-09-12T09:57:04.487Z,11600.00
2022-09-12T09:58:04.736Z,11076.00
2022-09-12T09:59:05.026Z,14903.00
2022-09-12T10:00:05.287Z,17388.00
2022-09-12T10:01:05.708Z,15152.00
2022-09-12T10:02:05.941Z,9412.00
2022-09-12T10:03:08.278Z,7255.00
2022-09-12T10:04:07.495Z,13726.00
2022-09-12T10:05:06.765Z,11584.00
2022-09-12T10:06:06.969Z,10194.00
2022-09-12T10:07:07.429Z,7304.00
2022-09-12T10:08:07.469Z,14310.00
2022-09-12T10:09:07.754Z,9734.00
2022-09-12T10:10:07.995Z,20038.00
2022-09-12T10:11:08.237Z,20049.00
2022-09-12T10:12:08.515Z,16057.00
2022-09-12T10:13:08.781Z,16746.00
2022-09-12T10:14:09.028Z,20399.00
2022-09-12T10:15:09.296Z,17414.00
2022-09-12T10:16:09.597Z,17481.00
2022-09-12T10:17:09.838Z,18366.00
2022-09-12T10:18:10.124Z,15353.00
2022-09-12T10:19:10.395Z,18294.00
2022-09-12T10:20:20.872Z,16873.00
2022-09-12T10:21:11.827Z,15442.00
2022-09-12T10:22:11.134Z,18625.00
2022-09-12T10:23:11.462Z,16414.00
2022-09-12T10:24:11.765Z,18159.00
2022-09-12T10:25:11.995Z,18418.00
2022-09-12T10:26:12.300Z,22329.00
2022-09-12T10:27:12.551Z,22816.00
2022-09-12T10:28:12.815Z,23538.00
2022-09-12T10:29:13.088Z,73114.00
2022-09-12T10:30:13.380Z,22001.00
2022-09-12T10:31:13.771Z,72794.00
2022-09-12T10:32:13.884Z,25031.00
2022-09-12T10:33:14.127Z,74992.00
2022-09-12T10:34:14.503Z,75053.00
2022-09-12T10:35:14.732Z,72899.00
2022-09-12T10:36:15.003Z,19261.00
2022-09-12T10:37:15.329Z,74732.00
2022-09-12T10:38:15.568Z,73581.00
2022-09-12T10:39:15.827Z,20065.00
2022-09-12T10:40:16.193Z,74725.00
2022-09-12T10:41:16.409Z,73811.00
2022-09-12T10:42:21.536Z,73395.00
2022-09-12T10:43:17.902Z,74144.00
2022-09-12T10:44:17.184Z,74863.00
2022-09-12T10:45:17.545Z,74755.00
2022-09-12T10:46:18.025Z,73861.00
2022-09-12T10:47:18.170Z,24210.00
2022-09-12T10:48:18.413Z,23230.00
2022-09-12T10:49:18.672Z,23039.00
2022-09-12T10:50:22.815Z,22353.00
2022-09-12T10:51:19.254Z,24433.00
2022-09-12T10:52:19.486Z,21351.00
2022-09-12T10:53:19.767Z,23455.00
2022-09-12T10:54:20.075Z,75668.00
2022-09-12T10:55:20.306Z,76009.00
2022-09-12T10:56:20.536Z,78574.00
2022-09-12T10:57:20.869Z,79249.00
2022-09-12T10:58:21.114Z,78311.00
2022-09-12T10:59:21.373Z,77522.00
2022-09-12T11:00:21.614Z,75493.00
2022-09-12T11:01:21.900Z,78750.00
2022-09-12T11:02:22.208Z,78401.00
2022-09-12T11:03:22.418Z,76634.00
2022-09-12T11:04:23.165Z,77170.00
2022-09-12T11:05:23.018Z,79083.00
2022-09-12T11:06:23.199Z,78036.00
2022-09-12T11:07:23.999Z,76926.00
2022-09-12T11:08:23.944Z,78155.00
2022-09-12T11:09:24.138Z,79014.00
2022-09-12T11:10:24.416Z,80031.00
2022-09-12T11:11:24.827Z,79122.00
2022-09-12T11:12:25.059Z,79624.00
2022-09-12T11:13:25.324Z,77687.00
2022-09-12T11:14:25.636Z,76929.00
2022-09-12T11:15:25.896Z,77938.00
2022-09-12T11:16:26.122Z,78665.00
2022-09-12T11:17:26.941Z,79293.00
2022-09-12T11:18:26.740Z,80065.00
2022-09-12T11:19:27.032Z,78820.00
2022-09-12T11:20:27.263Z,77193.00
2022-09-12T11:21:27.630Z,74440.00
2022-09-12T11:22:31.722Z,73966.00
2022-09-12T11:23:28.143Z,79191.00
2022-09-12T11:24:28.377Z,79986.00
2022-09-12T11:25:28.622Z,78839.00
2022-09-12T11:26:28.855Z,77772.00
2022-09-12T11:27:29.131Z,81117.00
2022-09-12T11:28:29.393Z,78322.00
2022-09-12T11:29:29.714Z,79008.00
2022-09-12T11:30:30.066Z,77830.00
2022-09-12T11:31:30.311Z,76037.00
2022-09-12T11:32:30.550Z,78764.00
2022-09-12T11:33:30.774Z,77818.00
2022-09-12T11:34:31.008Z,77178.00
2022-09-12T11:35:31.242Z,79959.00
2022-09-12T11:36:31.471Z,80554.00
2022-09-12T11:37:31.729Z,81367.00
2022-09-12T11:38:32.062Z,82149.00
2022-09-12T11:39:32.242Z,78846.00
2022-09-12T11:40:32.677Z,81825.00
2022-09-12T11:41:32.985Z,80047.00
2022-09-12T11:42:33.244Z,80043.00
2022-09-12T11:43:33.439Z,76753.00
2022-09-12T11:44:33.843Z,74416.00
2022-09-12T11:45:34.083Z,77252.00
2022-09-12T11:46:34.351Z,76907.00
2022-09-12T11:47:34.595Z,72887.00
2022-09-12T11:48:34.919Z,76823.00
2022-09-12T11:49:35.859Z,78895.00
2022-09-12T11:50:35.338Z,81153.00
2022-09-12T11:51:35.580Z,81350.00
2022-09-12T11:52:35.865Z,80629.00
2022-09-12T11:53:36.194Z,79991.00
2022-09-12T11:54:36.409Z,78791.00
2022-09-12T11:55:36.663Z,81333.00
2022-09-12T11:56:36.897Z,78688.00
2022-09-12T11:57:37.163Z,79888.00
2022-09-12T11:58:37.392Z,80509.00
2022-09-12T11:59:37.920Z,79195.00
2022-09-12T12:00:38.006Z,78158.00
2022-09-12T12:01:42.911Z,77411.00
2022-09-12T12:02:39.590Z,81229.00
2022-09-12T12:03:38.835Z,75872.00
2022-09-12T12:04:39.203Z,80771.00
2022-09-12T12:05:39.745Z,79101.00
2022-09-12T12:06:39.673Z,74654.00
2022-09-12T12:07:43.403Z,75143.00
2022-09-12T12:08:41.273Z,79040.00
2022-09-12T12:09:40.435Z,81698.00
2022-09-12T12:10:41.139Z,74935.00
2022-09-12T12:11:41.106Z,75116.00
2022-09-12T12:12:41.176Z,75576.00
2022-09-12T12:13:41.461Z,76750.00
2022-09-12T12:14:41.736Z,77873.00
2022-09-12T12:15:42.033Z,75160.00
2022-09-12T12:16:42.272Z,80540.00
2022-09-12T12:17:42.606Z,81359.00
2022-09-12T12:18:42.901Z,75139.00
2022-09-12T12:19:43.128Z,74985.00
2022-09-12T12:20:43.373Z,78425.00
2022-09-12T12:21:43.600Z,77242.00
2022-09-12T12:22:43.915Z,74818.00
2022-09-12T12:23:44.123Z,75180.00
2022-09-12T12:24:45.632Z,75530.00
2022-09-12T12:25:44.791Z,75337.00
2022-09-12T12:26:45.053Z,77223.00
2022-09-12T12:27:45.298Z,78284.00
2022-09-12T12:28:45.641Z,75634.00
2022-09-12T12:29:45.980Z,75400.00
2022-09-12T12:30:46.197Z,75889.00
2022-09-12T12:31:46.411Z,75604.00
2022-09-12T12:32:46.699Z,79776.00
2022-09-12T12:33:47.421Z,32425.00
2022-09-12T12:34:47.227Z,10047.00
2022-09-12T12:35:47.455Z,4237.00